sensor_id;sensor_type;location;lat;lon;timestamp;P1;durP1;ratioP1;P2;durP2;ratioP2
18304;SDS011;9278;52.156;21.048;2022-09-09T00:02:15;15.18;;;6.30;;
18304;SDS011;9278;52.156;21.048;2022-09-09T00:04:49;14.68;;;6.63;;
18304;SDS011;9278;52.156;21.048;2022-09-09T00:07:28;18.38;;;6.60;;
18304;SDS011;9278;52.156;21.048;2022-09-09T00:10:09;17.45;;;7.05;;
18304;SDS011;9278;52.156;21.048;2022-09-09T00:12:48;14.35;;;6.80;;
18304;SDS011;9278;52.156;21.048;2022-09-09T00:15:27;15.02;;;7.10;;
18304;SDS011;9278;52.156;21.048;2022-09-09T00:18:03;14.35;;;7.22;;
18304;SDS011;9278;52.156;21.048;2022-09-09T00:20:42;20.80;;;7.43;;
18304;SDS011;9278;52.156;21.048;2022-09-09T00:23:19;15.20;;;6.90;;
18304;SDS011;9278;52.156;21.048;2022-09-09T00:25:55;17.98;;;7.85;;
18304;SDS011;9278;52.156;21.048;2022-09-09T00:28:30;15.07;;;7.18;;
18304;SDS011;9278;52.156;21.048;2022-09-09T00:31:10;17.85;;;7.78;;
18304;SDS011;9278;52.156;21.048;2022-09-09T00:33:40;15.88;;;7.47;;
18304;SDS011;9278;52.156;21.048;2022-09-09T00:36:12;15.25;;;7.57;;
18304;SDS011;9278;52.156;21.048;2022-09-09T00:38:42;19.27;;;8.13;;
18304;SDS011;9278;52.156;21.048;2022-09-09T00:41:18;20.95;;;8.88;;
18304;SDS011;9278;52.156;21.048;2022-09-09T00:43:52;15.38;;;7.82;;
18304;SDS011;9278;52.156;21.048;2022-09-09T00:46:44;21.13;;;7.80;;
18304;SDS011;9278;52.156;21.048;2022-09-09T00:49:23;17.63;;;7.80;;
18304;SDS011;9278;52.156;21.048;2022-09-09T00:52:05;18.65;;;7.88;;
18304;SDS011;9278;52.156;21.048;2022-09-09T00:54:45;19.08;;;8.48;;
18304;SDS011;9278;52.156;21.048;2022-09-09T00:57:23;20.30;;;8.10;;
18304;SDS011;9278;52.156;21.048;2022-09-09T00:59:58;19.08;;;8.48;;
18304;SDS011;9278;52.156;21.048;2022-09-09T01:02:49;18.50;;;8.32;;
18304;SDS011;9278;52.156;21.048;2022-09-09T01:05:27;21.05;;;7.97;;
18304;SDS011;9278;52.156;21.048;2022-09-09T01:08:02;17.67;;;8.60;;
18304;SDS011;9278;52.156;21.048;2022-09-09T01:10:39;21.70;;;9.65;;
18304;SDS011;9278;52.156;21.048;2022-09-09T01:13:17;15.75;;;8.85;;
18304;SDS011;9278;52.156;21.048;2022-09-09T01:15:50;19.85;;;8.85;;
18304;SDS011;9278;52.156;21.048;2022-09-09T01:18:28;17.15;;;8.48;;
18304;SDS011;9278;52.156;21.048;2022-09-09T01:21:04;20.15;;;9.13;;
18304;SDS011;9278;52.156;21.048;2022-09-09T01:23:51;19.60;;;8.85;;
18304;SDS011;9278;52.156;21.048;2022-09-09T01:26:57;20.55;;;8.90;;
18304;SDS011;9278;52.156;21.048;2022-09-09T01:29:28;19.17;;;9.18;;
18304;SDS011;9278;52.156;21.048;2022-09-09T01:31:57;18.35;;;9.52;;
18304;SDS011;9278;52.156;21.048;2022-09-09T01:34:28;24.05;;;9.30;;
18304;SDS011;9278;52.156;21.048;2022-09-09T01:37:00;18.80;;;9.63;;
18304;SDS011;9278;52.156;21.048;2022-09-09T01:39:32;17.88;;;8.18;;
18304;SDS011;9278;52.156;21.048;2022-09-09T01:42:09;20.58;;;8.65;;
18304;SDS011;9278;52.156;21.048;2022-09-09T01:44:40;20.42;;;9.18;;
18304;SDS011;9278;52.156;21.048;2022-09-09T01:47:08;18.35;;;8.90;;
18304;SDS011;9278;52.156;21.048;2022-09-09T01:49:56;21.33;;;9.68;;
18304;SDS011;9278;52.156;21.048;2022-09-09T01:52:26;20.35;;;9.48;;
18304;SDS011;9278;52.156;21.048;2022-09-09T01:54:56;20.30;;;8.57;;
18304;SDS011;9278;52.156;21.048;2022-09-09T01:57:33;16.95;;;8.68;;
18304;SDS011;9278;52.156;21.048;2022-09-09T02:00:09;20.25;;;8.65;;
18304;SDS011;9278;52.156;21.048;2022-09-09T02:02:42;19.95;;;9.60;;
18304;SDS011;9278;52.156;21.048;2022-09-09T02:05:24;20.15;;;9.48;;
18304;SDS011;9278;52.156;21.048;2022-09-09T02:08:06;19.80;;;9.95;;
18304;SDS011;9278;52.156;21.048;2022-09-09T02:10:49;19.55;;;9.57;;
18304;SDS011;9278;52.156;21.048;2022-09-09T02:13:39;21.15;;;9.00;;
18304;SDS011;9278;52.156;21.048;2022-09-09T02:16:12;18.60;;;9.73;;
18304;SDS011;9278;52.156;21.048;2022-09-09T02:18:48;17.25;;;9.40;;
18304;SDS011;9278;52.156;21.048;2022-09-09T02:21:24;20.10;;;9.38;;
18304;SDS011;9278;52.156;21.048;2022-09-09T02:23:56;22.50;;;9.32;;
18304;SDS011;9278;52.156;21.048;2022-09-09T02:26:28;23.95;;;10.20;;
18304;SDS011;9278;52.156;21.048;2022-09-09T02:29:05;19.40;;;9.35;;
18304;SDS011;9278;52.156;21.048;2022-09-09T02:31:37;21.15;;;10.13;;
18304;SDS011;9278;52.156;21.048;2022-09-09T02:34:12;20.30;;;9.82;;
18304;SDS011;9278;52.156;21.048;2022-09-09T02:36:43;22.15;;;9.88;;
18304;SDS011;9278;52.156;21.048;2022-09-09T02:39:14;19.33;;;10.25;;
18304;SDS011;9278;52.156;21.048;2022-09-09T02:41:42;22.00;;;10.02;;
18304;SDS011;9278;52.156;21.048;2022-09-09T02:44:12;17.83;;;10.07;;
18304;SDS011;9278;52.156;21.048;2022-09-09T02:46:49;19.27;;;9.95;;
18304;SDS011;9278;52.156;21.048;2022-09-09T02:49:35;20.50;;;10.93;;
18304;SDS011;9278;52.156;21.048;2022-09-09T02:52:12;19.25;;;10.80;;
18304;SDS011;9278;52.156;21.048;2022-09-09T02:54:42;22.38;;;11.13;;
18304;SDS011;9278;52.156;21.048;2022-09-09T02:57:13;19.50;;;10.40;;
18304;SDS011;9278;52.156;21.048;2022-09-09T02:59:49;21.75;;;10.40;;
18304;SDS011;9278;52.156;21.048;2022-09-09T03:02:19;19.70;;;10.70;;
18304;SDS011;9278;52.156;21.048;2022-09-09T03:04:53;23.88;;;11.00;;
18304;SDS011;9278;52.156;21.048;2022-09-09T03:07:21;22.15;;;10.80;;
18304;SDS011;9278;52.156;21.048;2022-09-09T03:09:51;22.50;;;11.02;;
18304;SDS011;9278;52.156;21.048;2022-09-09T03:12:24;17.83;;;10.15;;
18304;SDS011;9278;52.156;21.048;2022-09-09T03:14:53;21.52;;;10.65;;
18304;SDS011;9278;52.156;21.048;2022-09-09T03:17:22;21.02;;;11.27;;
18304;SDS011;9278;52.156;21.048;2022-09-09T03:19:53;20.88;;;10.40;;
18304;SDS011;9278;52.156;21.048;2022-09-09T03:22:22;20.83;;;10.10;;
18304;SDS011;9278;52.156;21.048;2022-09-09T03:24:51;24.63;;;10.98;;
18304;SDS011;9278;52.156;21.048;2022-09-09T03:27:21;21.83;;;10.52;;
18304;SDS011;9278;52.156;21.048;2022-09-09T03:29:50;21.17;;;10.60;;
18304;SDS011;9278;52.156;21.048;2022-09-09T03:32:23;20.67;;;9.80;;
18304;SDS011;9278;52.156;21.048;2022-09-09T03:34:54;18.80;;;10.10;;
18304;SDS011;9278;52.156;21.048;2022-09-09T03:37:22;20.73;;;10.57;;
18304;SDS011;9278;52.156;21.048;2022-09-09T03:39:51;22.27;;;11.32;;
18304;SDS011;9278;52.156;21.048;2022-09-09T03:42:21;17.77;;;10.55;;
18304;SDS011;9278;52.156;21.048;2022-09-09T03:44:52;22.48;;;10.85;;
18304;SDS011;9278;52.156;21.048;2022-09-09T03:47:24;23.65;;;11.13;;
18304;SDS011;9278;52.156;21.048;2022-09-09T03:49:59;21.25;;;10.80;;
18304;SDS011;9278;52.156;21.048;2022-09-09T03:52:27;19.83;;;10.88;;
18304;SDS011;9278;52.156;21.048;2022-09-09T03:54:56;23.95;;;11.25;;
18304;SDS011;9278;52.156;21.048;2022-09-09T03:57:24;22.92;;;11.57;;
18304;SDS011;9278;52.156;21.048;2022-09-09T03:59:52;20.75;;;10.45;;
18304;SDS011;9278;52.156;21.048;2022-09-09T04:02:20;23.10;;;10.57;;
18304;SDS011;9278;52.156;21.048;2022-09-09T04:04:50;18.48;;;9.73;;
18304;SDS011;9278;52.156;21.048;2022-09-09T04:07:18;21.48;;;10.23;;
18304;SDS011;9278;52.156;21.048;2022-09-09T04:09:47;17.48;;;9.95;;
18304;SDS011;9278;52.156;21.048;2022-09-09T04:12:16;21.33;;;10.00;;
18304;SDS011;9278;52.156;21.048;2022-09-09T04:14:44;17.85;;;9.60;;
18304;SDS011;9278;52.156;21.048;2022-09-09T04:17:12;17.50;;;8.95;;
18304;SDS011;9278;52.156;21.048;2022-09-09T04:19:40;15.95;;;8.98;;
18304;SDS011;9278;52.156;21.048;2022-09-09T04:22:10;16.52;;;9.50;;
18304;SDS011;9278;52.156;21.048;2022-09-09T04:24:39;16.88;;;9.30;;
18304;SDS011;9278;52.156;21.048;2022-09-09T04:27:14;15.45;;;8.77;;
18304;SDS011;9278;52.156;21.048;2022-09-09T04:29:42;15.40;;;8.63;;
18304;SDS011;9278;52.156;21.048;2022-09-09T04:32:11;16.45;;;9.15;;
18304;SDS011;9278;52.156;21.048;2022-09-09T04:34:39;18.00;;;9.68;;
18304;SDS011;9278;52.156;21.048;2022-09-09T04:37:08;16.17;;;9.82;;
18304;SDS011;9278;52.156;21.048;2022-09-09T04:39:38;15.88;;;9.52;;
18304;SDS011;9278;52.156;21.048;2022-09-09T04:42:06;14.32;;;8.68;;
18304;SDS011;9278;52.156;21.048;2022-09-09T04:44:35;17.70;;;8.90;;
18304;SDS011;9278;52.156;21.048;2022-09-09T04:47:03;17.25;;;8.60;;
18304;SDS011;9278;52.156;21.048;2022-09-09T04:49:32;17.20;;;8.68;;
18304;SDS011;9278;52.156;21.048;2022-09-09T04:52:00;13.40;;;8.18;;
18304;SDS011;9278;52.156;21.048;2022-09-09T04:54:30;14.68;;;8.98;;
18304;SDS011;9278;52.156;21.048;2022-09-09T04:56:58;12.45;;;7.82;;
18304;SDS011;9278;52.156;21.048;2022-09-09T04:59:26;15.57;;;8.10;;
18304;SDS011;9278;52.156;21.048;2022-09-09T05:01:57;12.93;;;8.25;;
18304;SDS011;9278;52.156;21.048;2022-09-09T05:04:28;14.40;;;8.23;;
18304;SDS011;9278;52.156;21.048;2022-09-09T05:06:57;14.10;;;8.20;;
18304;SDS011;9278;52.156;21.048;2022-09-09T05:09:25;12.75;;;7.75;;
18304;SDS011;9278;52.156;21.048;2022-09-09T05:11:55;13.13;;;8.40;;
18304;SDS011;9278;52.156;21.048;2022-09-09T05:14:28;14.63;;;8.40;;
18304;SDS011;9278;52.156;21.048;2022-09-09T05:16:59;13.60;;;7.82;;
18304;SDS011;9278;52.156;21.048;2022-09-09T05:19:28;17.40;;;8.38;;
18304;SDS011;9278;52.156;21.048;2022-09-09T05:21:57;14.52;;;7.32;;
18304;SDS011;9278;52.156;21.048;2022-09-09T05:24:33;14.20;;;7.97;;
18304;SDS011;9278;52.156;21.048;2022-09-09T05:27:04;11.60;;;7.28;;
18304;SDS011;9278;52.156;21.048;2022-09-09T05:29:32;10.70;;;7.05;;
18304;SDS011;9278;52.156;21.048;2022-09-09T05:32:03;10.30;;;6.80;;
18304;SDS011;9278;52.156;21.048;2022-09-09T05:34:33;14.25;;;7.20;;
18304;SDS011;9278;52.156;21.048;2022-09-09T05:37:01;12.98;;;8.25;;
18304;SDS011;9278;52.156;21.048;2022-09-09T05:39:31;11.57;;;6.93;;
18304;SDS011;9278;52.156;21.048;2022-09-09T05:42:00;12.95;;;7.90;;
18304;SDS011;9278;52.156;21.048;2022-09-09T05:44:32;10.20;;;6.97;;
18304;SDS011;9278;52.156;21.048;2022-09-09T05:47:01;12.13;;;7.40;;
18304;SDS011;9278;52.156;21.048;2022-09-09T05:49:29;14.02;;;8.00;;
18304;SDS011;9278;52.156;21.048;2022-09-09T05:51:58;14.50;;;7.65;;
18304;SDS011;9278;52.156;21.048;2022-09-09T05:54:26;11.27;;;7.50;;
18304;SDS011;9278;52.156;21.048;2022-09-09T05:56:54;14.13;;;7.97;;
18304;SDS011;9278;52.156;21.048;2022-09-09T05:59:22;13.07;;;7.97;;
18304;SDS011;9278;52.156;21.048;2022-09-09T06:01:55;12.60;;;7.45;;
18304;SDS011;9278;52.156;21.048;2022-09-09T06:04:32;14.45;;;8.07;;
18304;SDS011;9278;52.156;21.048;2022-09-09T06:07:01;13.43;;;7.68;;
18304;SDS011;9278;52.156;21.048;2022-09-09T06:09:29;12.18;;;7.95;;
18304;SDS011;9278;52.156;21.048;2022-09-09T06:11:57;13.80;;;7.78;;
18304;SDS011;9278;52.156;21.048;2022-09-09T06:14:25;13.45;;;7.63;;
18304;SDS011;9278;52.156;21.048;2022-09-09T06:16:58;12.15;;;8.00;;
18304;SDS011;9278;52.156;21.048;2022-09-09T06:19:29;14.88;;;8.50;;
18304;SDS011;9278;52.156;21.048;2022-09-09T06:21:58;14.38;;;7.80;;
18304;SDS011;9278;52.156;21.048;2022-09-09T06:24:28;13.48;;;8.55;;
18304;SDS011;9278;52.156;21.048;2022-09-09T06:26:58;15.65;;;8.43;;
18304;SDS011;9278;52.156;21.048;2022-09-09T06:29:30;15.07;;;8.55;;
18304;SDS011;9278;52.156;21.048;2022-09-09T06:32:01;14.52;;;8.85;;
18304;SDS011;9278;52.156;21.048;2022-09-09T06:34:30;13.68;;;9.02;;
18304;SDS011;9278;52.156;21.048;2022-09-09T06:36:59;14.77;;;8.80;;
18304;SDS011;9278;52.156;21.048;2022-09-09T06:39:41;14.63;;;9.02;;
18304;SDS011;9278;52.156;21.048;2022-09-09T06:42:10;14.43;;;9.20;;
18304;SDS011;9278;52.156;21.048;2022-09-09T06:44:53;14.10;;;8.52;;
18304;SDS011;9278;52.156;21.048;2022-09-09T06:47:35;16.10;;;9.20;;
18304;SDS011;9278;52.156;21.048;2022-09-09T06:50:04;14.40;;;9.13;;
18304;SDS011;9278;52.156;21.048;2022-09-09T06:52:34;16.83;;;9.60;;
18304;SDS011;9278;52.156;21.048;2022-09-09T06:55:03;15.40;;;9.50;;
18304;SDS011;9278;52.156;21.048;2022-09-09T06:57:33;15.05;;;9.70;;
18304;SDS011;9278;52.156;21.048;2022-09-09T07:00:08;17.80;;;9.20;;
18304;SDS011;9278;52.156;21.048;2022-09-09T07:02:40;16.63;;;9.98;;
18304;SDS011;9278;52.156;21.048;2022-09-09T07:05:09;16.73;;;10.52;;
18304;SDS011;9278;52.156;21.048;2022-09-09T07:07:39;15.93;;;10.02;;
18304;SDS011;9278;52.156;21.048;2022-09-09T07:10:10;16.75;;;10.23;;
18304;SDS011;9278;52.156;21.048;2022-09-09T07:12:38;19.88;;;8.82;;
18304;SDS011;9278;52.156;21.048;2022-09-09T07:15:09;16.40;;;10.50;;
18304;SDS011;9278;52.156;21.048;2022-09-09T07:17:43;17.67;;;9.57;;
18304;SDS011;9278;52.156;21.048;2022-09-09T07:20:11;16.02;;;10.00;;
18304;SDS011;9278;52.156;21.048;2022-09-09T07:22:41;19.05;;;11.20;;
18304;SDS011;9278;52.156;21.048;2022-09-09T07:25:09;16.60;;;10.52;;
18304;SDS011;9278;52.156;21.048;2022-09-09T07:27:37;16.08;;;10.60;;
18304;SDS011;9278;52.156;21.048;2022-09-09T07:30:08;14.77;;;10.27;;
18304;SDS011;9278;52.156;21.048;2022-09-09T07:32:44;18.08;;;11.45;;
18304;SDS011;9278;52.156;21.048;2022-09-09T07:35:12;16.23;;;10.23;;
18304;SDS011;9278;52.156;21.048;2022-09-09T07:37:41;15.93;;;10.88;;
18304;SDS011;9278;52.156;21.048;2022-09-09T07:40:15;16.75;;;10.60;;
18304;SDS011;9278;52.156;21.048;2022-09-09T07:42:46;16.60;;;10.23;;
18304;SDS011;9278;52.156;21.048;2022-09-09T07:45:14;14.93;;;10.25;;
18304;SDS011;9278;52.156;21.048;2022-09-09T07:47:42;15.57;;;10.13;;
18304;SDS011;9278;52.156;21.048;2022-09-09T07:50:11;17.75;;;10.60;;
18304;SDS011;9278;52.156;21.048;2022-09-09T07:52:39;15.10;;;10.20;;
18304;SDS011;9278;52.156;21.048;2022-09-09T07:55:08;20.90;;;11.23;;
18304;SDS011;9278;52.156;21.048;2022-09-09T07:57:37;17.23;;;10.65;;
18304;SDS011;9278;52.156;21.048;2022-09-09T08:00:05;18.27;;;10.63;;
18304;SDS011;9278;52.156;21.048;2022-09-09T08:02:44;20.52;;;10.82;;
18304;SDS011;9278;52.156;21.048;2022-09-09T08:05:15;16.65;;;10.85;;
18304;SDS011;9278;52.156;21.048;2022-09-09T08:07:44;18.02;;;10.63;;
18304;SDS011;9278;52.156;21.048;2022-09-09T08:10:14;22.55;;;11.45;;
18304;SDS011;9278;52.156;21.048;2022-09-09T08:12:44;18.58;;;11.55;;
18304;SDS011;9278;52.156;21.048;2022-09-09T08:15:32;19.30;;;11.43;;
18304;SDS011;9278;52.156;21.048;2022-09-09T08:18:02;18.77;;;11.15;;
18304;SDS011;9278;52.156;21.048;2022-09-09T08:20:32;27.15;;;12.10;;
18304;SDS011;9278;52.156;21.048;2022-09-09T08:23:00;17.60;;;10.43;;
18304;SDS011;9278;52.156;21.048;2022-09-09T08:25:28;16.45;;;10.63;;
18304;SDS011;9278;52.156;21.048;2022-09-09T08:27:56;13.50;;;9.23;;
18304;SDS011;9278;52.156;21.048;2022-09-09T08:30:25;18.90;;;11.52;;
18304;SDS011;9278;52.156;21.048;2022-09-09T08:32:53;18.77;;;11.13;;
18304;SDS011;9278;52.156;21.048;2022-09-09T08:35:21;20.20;;;10.68;;
18304;SDS011;9278;52.156;21.048;2022-09-09T08:37:54;17.35;;;11.55;;
18304;SDS011;9278;52.156;21.048;2022-09-09T08:40:24;20.70;;;12.18;;
18304;SDS011;9278;52.156;21.048;2022-09-09T08:42:57;20.45;;;12.07;;
18304;SDS011;9278;52.156;21.048;2022-09-09T08:45:31;20.70;;;12.40;;
18304;SDS011;9278;52.156;21.048;2022-09-09T08:50:57;22.52;;;12.30;;
18304;SDS011;9278;52.156;21.048;2022-09-09T08:53:34;20.02;;;11.95;;
18304;SDS011;9278;52.156;21.048;2022-09-09T08:56:08;22.00;;;12.77;;
18304;SDS011;9278;52.156;21.048;2022-09-09T08:58:50;23.27;;;13.40;;
18304;SDS011;9278;52.156;21.048;2022-09-09T09:01:36;26.17;;;13.57;;
18304;SDS011;9278;52.156;21.048;2022-09-09T09:04:26;26.00;;;14.05;;
18304;SDS011;9278;52.156;21.048;2022-09-09T09:07:07;24.80;;;13.85;;
18304;SDS011;9278;52.156;21.048;2022-09-09T09:09:51;22.48;;;13.23;;
18304;SDS011;9278;52.156;21.048;2022-09-09T09:12:27;23.00;;;13.50;;
18304;SDS011;9278;52.156;21.048;2022-09-09T09:14:58;25.23;;;13.90;;
18304;SDS011;9278;52.156;21.048;2022-09-09T09:17:28;24.02;;;13.52;;
18304;SDS011;9278;52.156;21.048;2022-09-09T09:19:59;22.30;;;14.00;;
18304;SDS011;9278;52.156;21.048;2022-09-09T09:22:32;25.83;;;14.13;;
18304;SDS011;9278;52.156;21.048;2022-09-09T09:25:11;26.45;;;13.95;;
18304;SDS011;9278;52.156;21.048;2022-09-09T09:27:48;23.35;;;13.68;;
18304;SDS011;9278;52.156;21.048;2022-09-09T09:30:25;29.70;;;14.85;;
18304;SDS011;9278;52.156;21.048;2022-09-09T09:33:05;27.90;;;15.25;;
18304;SDS011;9278;52.156;21.048;2022-09-09T09:35:39;28.45;;;14.95;;
18304;SDS011;9278;52.156;21.048;2022-09-09T09:38:16;29.40;;;15.25;;
18304;SDS011;9278;52.156;21.048;2022-09-09T09:41:08;26.63;;;15.45;;
18304;SDS011;9278;52.156;21.048;2022-09-09T09:43:37;29.13;;;16.05;;
18304;SDS011;9278;52.156;21.048;2022-09-09T09:46:18;31.92;;;16.20;;
18304;SDS011;9278;52.156;21.048;2022-09-09T09:48:58;28.77;;;15.48;;
18304;SDS011;9278;52.156;21.048;2022-09-09T09:51:28;27.23;;;15.48;;
18304;SDS011;9278;52.156;21.048;2022-09-09T09:54:08;28.77;;;15.52;;
18304;SDS011;9278;52.156;21.048;2022-09-09T09:56:48;27.52;;;14.95;;
18304;SDS011;9278;52.156;21.048;2022-09-09T09:59:21;31.77;;;16.38;;
18304;SDS011;9278;52.156;21.048;2022-09-09T10:02:13;36.08;;;16.45;;
18304;SDS011;9278;52.156;21.048;2022-09-09T10:04:46;30.10;;;16.80;;
18304;SDS011;9278;52.156;21.048;2022-09-09T10:07:17;34.10;;;18.15;;
18304;SDS011;9278;52.156;21.048;2022-09-09T10:09:48;33.10;;;17.73;;
18304;SDS011;9278;52.156;21.048;2022-09-09T10:12:24;34.72;;;17.73;;
18304;SDS011;9278;52.156;21.048;2022-09-09T10:15:02;32.50;;;16.58;;
18304;SDS011;9278;52.156;21.048;2022-09-09T10:17:54;28.80;;;16.40;;
18304;SDS011;9278;52.156;21.048;2022-09-09T10:20:32;35.05;;;18.25;;
18304;SDS011;9278;52.156;21.048;2022-09-09T10:23:13;32.20;;;18.13;;
18304;SDS011;9278;52.156;21.048;2022-09-09T10:26:00;35.83;;;16.38;;
18304;SDS011;9278;52.156;21.048;2022-09-09T10:28:51;29.13;;;17.35;;
18304;SDS011;9278;52.156;21.048;2022-09-09T10:31:50;35.17;;;17.77;;
18304;SDS011;9278;52.156;21.048;2022-09-09T10:34:30;35.15;;;18.80;;
18304;SDS011;9278;52.156;21.048;2022-09-09T10:37:22;33.88;;;18.67;;
18304;SDS011;9278;52.156;21.048;2022-09-09T10:40:08;34.85;;;18.65;;
18304;SDS011;9278;52.156;21.048;2022-09-09T10:42:51;35.53;;;19.10;;
18304;SDS011;9278;52.156;21.048;2022-09-09T10:45:25;40.55;;;19.80;;
18304;SDS011;9278;52.156;21.048;2022-09-09T10:48:04;38.45;;;20.10;;
18304;SDS011;9278;52.156;21.048;2022-09-09T10:53:35;41.42;;;19.33;;
18304;SDS011;9278;52.156;21.048;2022-09-09T10:56:11;37.40;;;19.15;;
18304;SDS011;9278;52.156;21.048;2022-09-09T10:58:44;41.67;;;19.25;;
18304;SDS011;9278;52.156;21.048;2022-09-09T11:01:18;41.10;;;21.10;;
18304;SDS011;9278;52.156;21.048;2022-09-09T11:03:51;38.33;;;21.20;;
18304;SDS011;9278;52.156;21.048;2022-09-09T11:06:23;39.45;;;20.77;;
18304;SDS011;9278;52.156;21.048;2022-09-09T11:08:57;39.80;;;22.17;;
18304;SDS011;9278;52.156;21.048;2022-09-09T11:11:29;41.35;;;22.30;;
18304;SDS011;9278;52.156;21.048;2022-09-09T11:14:05;42.13;;;22.05;;
18304;SDS011;9278;52.156;21.048;2022-09-09T11:16:41;40.28;;;20.58;;
18304;SDS011;9278;52.156;21.048;2022-09-09T11:19:17;39.78;;;21.17;;
18304;SDS011;9278;52.156;21.048;2022-09-09T11:21:52;42.42;;;21.80;;
18304;SDS011;9278;52.156;21.048;2022-09-09T11:24:25;43.20;;;21.40;;
18304;SDS011;9278;52.156;21.048;2022-09-09T11:26:58;45.83;;;22.25;;
18304;SDS011;9278;52.156;21.048;2022-09-09T11:32:25;45.20;;;22.55;;
18304;SDS011;9278;52.156;21.048;2022-09-09T11:35:09;49.08;;;23.80;;
18304;SDS011;9278;52.156;21.048;2022-09-09T11:37:55;44.25;;;22.88;;
18304;SDS011;9278;52.156;21.048;2022-09-09T11:40:45;53.58;;;24.52;;
18304;SDS011;9278;52.156;21.048;2022-09-09T11:43:15;48.80;;;24.63;;
18304;SDS011;9278;52.156;21.048;2022-09-09T11:45:50;55.40;;;24.77;;
18304;SDS011;9278;52.156;21.048;2022-09-09T11:48:29;51.35;;;24.75;;
18304;SDS011;9278;52.156;21.048;2022-09-09T11:51:05;52.13;;;24.38;;
18304;SDS011;9278;52.156;21.048;2022-09-09T11:53:48;50.92;;;24.85;;
18304;SDS011;9278;52.156;21.048;2022-09-09T11:56:25;49.47;;;24.02;;
18304;SDS011;9278;52.156;21.048;2022-09-09T11:58:57;55.15;;;24.85;;
18304;SDS011;9278;52.156;21.048;2022-09-09T12:01:29;55.60;;;25.92;;
18304;SDS011;9278;52.156;21.048;2022-09-09T12:04:16;51.22;;;23.90;;
18304;SDS011;9278;52.156;21.048;2022-09-09T12:06:54;52.58;;;24.63;;
18304;SDS011;9278;52.156;21.048;2022-09-09T12:09:27;56.00;;;26.08;;
18304;SDS011;9278;52.156;21.048;2022-09-09T12:14:58;52.65;;;25.48;;
18304;SDS011;9278;52.156;21.048;2022-09-09T12:17:47;56.15;;;26.70;;
18304;SDS011;9278;52.156;21.048;2022-09-09T12:20:20;54.78;;;26.30;;
18304;SDS011;9278;52.156;21.048;2022-09-09T12:22:56;54.92;;;27.48;;
18304;SDS011;9278;52.156;21.048;2022-09-09T12:25:47;58.60;;;27.20;;
18304;SDS011;9278;52.156;21.048;2022-09-09T12:28:24;64.63;;;26.98;;
18304;SDS011;9278;52.156;21.048;2022-09-09T12:31:00;54.25;;;26.95;;
18304;SDS011;9278;52.156;21.048;2022-09-09T12:33:34;52.25;;;26.30;;
18304;SDS011;9278;52.156;21.048;2022-09-09T12:36:05;53.47;;;26.38;;
18304;SDS011;9278;52.156;21.048;2022-09-09T12:38:40;55.35;;;28.17;;
18304;SDS011;9278;52.156;21.048;2022-09-09T12:41:17;53.38;;;26.35;;
18304;SDS011;9278;52.156;21.048;2022-09-09T12:43:48;54.92;;;26.92;;
18304;SDS011;9278;52.156;21.048;2022-09-09T12:46:25;63.50;;;27.60;;
18304;SDS011;9278;52.156;21.048;2022-09-09T12:49:00;56.08;;;26.83;;
18304;SDS011;9278;52.156;21.048;2022-09-09T12:51:30;60.63;;;27.23;;
18304;SDS011;9278;52.156;21.048;2022-09-09T12:53:59;52.45;;;26.33;;
18304;SDS011;9278;52.156;21.048;2022-09-09T12:56:28;55.72;;;26.38;;
18304;SDS011;9278;52.156;21.048;2022-09-09T12:58:59;49.08;;;23.92;;
18304;SDS011;9278;52.156;21.048;2022-09-09T13:01:28;51.25;;;24.55;;
18304;SDS011;9278;52.156;21.048;2022-09-09T13:03:57;54.67;;;26.17;;
18304;SDS011;9278;52.156;21.048;2022-09-09T13:06:26;52.40;;;25.17;;
18304;SDS011;9278;52.156;21.048;2022-09-09T13:08:57;55.22;;;26.92;;
18304;SDS011;9278;52.156;21.048;2022-09-09T13:11:27;52.95;;;25.73;;
18304;SDS011;9278;52.156;21.048;2022-09-09T13:14:00;55.53;;;26.42;;
18304;SDS011;9278;52.156;21.048;2022-09-09T13:16:29;59.75;;;25.67;;
18304;SDS011;9278;52.156;21.048;2022-09-09T13:19:06;57.47;;;25.55;;
18304;SDS011;9278;52.156;21.048;2022-09-09T13:21:36;54.25;;;26.33;;
18304;SDS011;9278;52.156;21.048;2022-09-09T13:24:21;55.75;;;26.27;;
18304;SDS011;9278;52.156;21.048;2022-09-09T13:26:56;61.85;;;27.27;;
18304;SDS011;9278;52.156;21.048;2022-09-09T13:29:24;60.50;;;26.48;;
18304;SDS011;9278;52.156;21.048;2022-09-09T13:31:52;62.45;;;26.00;;
18304;SDS011;9278;52.156;21.048;2022-09-09T13:34:26;56.03;;;26.15;;
18304;SDS011;9278;52.156;21.048;2022-09-09T13:36:57;53.78;;;25.55;;
18304;SDS011;9278;52.156;21.048;2022-09-09T13:39:30;58.45;;;26.20;;
18304;SDS011;9278;52.156;21.048;2022-09-09T13:41:58;64.47;;;25.52;;
18304;SDS011;9278;52.156;21.048;2022-09-09T13:44:26;55.42;;;23.65;;
18304;SDS011;9278;52.156;21.048;2022-09-09T13:47:00;60.35;;;25.23;;
18304;SDS011;9278;52.156;21.048;2022-09-09T13:49:35;60.67;;;25.35;;
18304;SDS011;9278;52.156;21.048;2022-09-09T13:52:04;56.78;;;25.50;;
18304;SDS011;9278;52.156;21.048;2022-09-09T13:54:37;58.88;;;25.08;;
18304;SDS011;9278;52.156;21.048;2022-09-09T13:57:11;57.78;;;25.42;;
18304;SDS011;9278;52.156;21.048;2022-09-09T13:59:43;57.03;;;24.52;;
18304;SDS011;9278;52.156;21.048;2022-09-09T14:02:32;56.47;;;24.80;;
18304;SDS011;9278;52.156;21.048;2022-09-09T14:05:00;62.38;;;25.05;;
18304;SDS011;9278;52.156;21.048;2022-09-09T14:07:28;59.42;;;24.65;;
18304;SDS011;9278;52.156;21.048;2022-09-09T14:09:58;65.93;;;25.60;;
18304;SDS011;9278;52.156;21.048;2022-09-09T14:12:26;62.28;;;24.15;;
18304;SDS011;9278;52.156;21.048;2022-09-09T14:14:55;62.13;;;24.90;;
18304;SDS011;9278;52.156;21.048;2022-09-09T14:17:23;60.47;;;25.17;;
18304;SDS011;9278;52.156;21.048;2022-09-09T14:19:51;55.63;;;23.00;;
18304;SDS011;9278;52.156;21.048;2022-09-09T14:22:19;65.68;;;24.95;;
18304;SDS011;9278;52.156;21.048;2022-09-09T14:24:47;59.63;;;24.60;;
18304;SDS011;9278;52.156;21.048;2022-09-09T14:27:17;57.38;;;24.30;;
18304;SDS011;9278;52.156;21.048;2022-09-09T14:29:46;57.33;;;24.58;;
18304;SDS011;9278;52.156;21.048;2022-09-09T14:32:14;56.33;;;25.27;;
18304;SDS011;9278;52.156;21.048;2022-09-09T14:34:42;52.50;;;22.73;;
18304;SDS011;9278;52.156;21.048;2022-09-09T14:37:10;60.85;;;23.25;;
18304;SDS011;9278;52.156;21.048;2022-09-09T14:39:38;59.00;;;24.48;;
18304;SDS011;9278;52.156;21.048;2022-09-09T14:42:06;50.90;;;24.33;;
18304;SDS011;9278;52.156;21.048;2022-09-09T14:44:38;55.85;;;23.40;;
18304;SDS011;9278;52.156;21.048;2022-09-09T14:47:07;50.38;;;25.50;;
18304;SDS011;9278;52.156;21.048;2022-09-09T14:49:35;51.00;;;23.85;;
18304;SDS011;9278;52.156;21.048;2022-09-09T14:52:08;52.47;;;24.40;;
18304;SDS011;9278;52.156;21.048;2022-09-09T14:54:36;52.88;;;23.38;;
18304;SDS011;9278;52.156;21.048;2022-09-09T14:57:04;52.53;;;22.35;;
18304;SDS011;9278;52.156;21.048;2022-09-09T14:59:32;50.13;;;22.38;;
18304;SDS011;9278;52.156;21.048;2022-09-09T15:02:02;53.80;;;24.48;;
18304;SDS011;9278;52.156;21.048;2022-09-09T15:04:31;53.95;;;22.70;;
18304;SDS011;9278;52.156;21.048;2022-09-09T15:06:59;52.60;;;23.10;;
18304;SDS011;9278;52.156;21.048;2022-09-09T15:09:27;50.50;;;24.05;;
18304;SDS011;9278;52.156;21.048;2022-09-09T15:11:55;51.67;;;23.98;;
18304;SDS011;9278;52.156;21.048;2022-09-09T15:14:23;51.83;;;22.48;;